sensor_id;sensor_type;location;lat;lon;timestamp;temperature;humidity
24144;DHT22;12307;50.828;6.080;2023-04-15T00:00:17;19.20;53.60
24144;DHT22;12307;50.828;6.080;2023-04-15T00:02:43;19.10;53.60
24144;DHT22;12307;50.828;6.080;2023-04-15T00:05:09;19.10;53.60
24144;DHT22;12307;50.828;6.080;2023-04-15T00:07:35;19.10;53.60
24144;DHT22;12307;50.828;6.080;2023-04-15T00:10:00;19.20;53.60
24144;DHT22;12307;50.828;6.080;2023-04-15T00:12:28;19.10;53.60
24144;DHT22;12307;50.828;6.080;2023-04-15T00:14:53;19.10;53.60
24144;DHT22;12307;50.828;6.080;2023-04-15T00:17:20;19.10;53.60
24144;DHT22;12307;50.828;6.080;2023-04-15T00:19:45;19.10;53.60
24144;DHT22;12307;50.828;6.080;2023-04-15T00:22:11;19.10;53.60
24144;DHT22;12307;50.828;6.080;2023-04-15T00:24:37;19.10;53.60
24144;DHT22;12307;50.828;6.080;2023-04-15T00:27:03;19.10;53.60
24144;DHT22;12307;50.828;6.080;2023-04-15T00:29:31;19.10;53.60
24144;DHT22;12307;50.828;6.080;2023-04-15T00:31:56;19.10;53.60
24144;DHT22;12307;50.828;6.080;2023-04-15T00:34:22;19.10;53.60
24144;DHT22;12307;50.828;6.080;2023-04-15T00:36:48;19.10;53.60
24144;DHT22;12307;50.828;6.080;2023-04-15T00:39:14;19.10;53.60
24144;DHT22;12307;50.828;6.080;2023-04-15T00:41:40;19.10;53.60
24144;DHT22;12307;50.828;6.080;2023-04-15T00:44:06;19.10;53.60
24144;DHT22;12307;50.828;6.080;2023-04-15T00:46:35;19.10;53.60
24144;DHT22;12307;50.828;6.080;2023-04-15T00:49:03;19.10;53.60
24144;DHT22;12307;50.828;6.080;2023-04-15T00:51:29;19.10;53.60
24144;DHT22;12307;50.828;6.080;2023-04-15T00:53:56;19.10;53.60
24144;DHT22;12307;50.828;6.080;2023-04-15T00:56:22;19.10;53.60
24144;DHT22;12307;50.828;6.080;2023-04-15T00:58:48;19.10;53.60
24144;DHT22;12307;50.828;6.080;2023-04-15T01:01:15;19.10;53.60
24144;DHT22;12307;50.828;6.080;2023-04-15T01:03:42;19.10;53.60
24144;DHT22;12307;50.828;6.080;2023-04-15T01:06:08;19.10;53.60
24144;DHT22;12307;50.828;6.080;2023-04-15T01:08:33;19.10;53.60
24144;DHT22;12307;50.828;6.080;2023-04-15T01:11:00;19.10;53.60
24144;DHT22;12307;50.828;6.080;2023-04-15T01:13:28;19.10;53.50
24144;DHT22;12307;50.828;6.080;2023-04-15T01:15:55;19.10;53.50
24144;DHT22;12307;50.828;6.080;2023-04-15T01:18:21;19.10;53.60
24144;DHT22;12307;50.828;6.080;2023-04-15T01:20:49;19.10;53.50
24144;DHT22;12307;50.828;6.080;2023-04-15T01:23:14;19.10;53.50
24144;DHT22;12307;50.828;6.080;2023-04-15T01:25:43;19.10;53.50
24144;DHT22;12307;50.828;6.080;2023-04-15T01:28:09;19.10;53.50
24144;DHT22;12307;50.828;6.080;2023-04-15T01:30:35;19.10;53.60
24144;DHT22;12307;50.828;6.080;2023-04-15T01:33:01;19.10;53.50
24144;DHT22;12307;50.828;6.080;2023-04-15T01:35:27;19.00;54.10
24144;DHT22;12307;50.828;6.080;2023-04-15T01:37:53;19.00;53.50
24144;DHT22;12307;50.828;6.080;2023-04-15T01:40:19;19.00;53.50
24144;DHT22;12307;50.828;6.080;2023-04-15T01:42:46;19.00;53.50
24144;DHT22;12307;50.828;6.080;2023-04-15T01:45:12;19.00;53.50
24144;DHT22;12307;50.828;6.080;2023-04-15T01:47:40;19.00;53.50
24144;DHT22;12307;50.828;6.080;2023-04-15T01:50:06;19.00;53.50
24144;DHT22;12307;50.828;6.080;2023-04-15T01:52:32;19.00;53.50
24144;DHT22;12307;50.828;6.080;2023-04-15T01:54:58;19.00;53.50
24144;DHT22;12307;50.828;6.080;2023-04-15T01:57:24;19.00;54.10
24144;DHT22;12307;50.828;6.080;2023-04-15T01:59:51;19.00;53.50
24144;DHT22;12307;50.828;6.080;2023-04-15T02:02:17;19.00;53.50
24144;DHT22;12307;50.828;6.080;2023-04-15T02:04:42;19.00;53.50
24144;DHT22;12307;50.828;6.080;2023-04-15T02:07:09;19.00;53.50
24144;DHT22;12307;50.828;6.080;2023-04-15T02:09:34;19.00;53.50
24144;DHT22;12307;50.828;6.080;2023-04-15T02:12:00;19.00;53.50
24144;DHT22;12307;50.828;6.080;2023-04-15T02:14:26;19.00;53.50
24144;DHT22;12307;50.828;6.080;2023-04-15T02:16:53;19.00;53.50
24144;DHT22;12307;50.828;6.080;2023-04-15T02:19:18;19.00;53.50
24144;DHT22;12307;50.828;6.080;2023-04-15T02:21:44;19.00;53.50
24144;DHT22;12307;50.828;6.080;2023-04-15T02:24:10;19.00;53.50
24144;DHT22;12307;50.828;6.080;2023-04-15T02:26:37;19.00;53.50
24144;DHT22;12307;50.828;6.080;2023-04-15T02:29:03;19.00;53.50
24144;DHT22;12307;50.828;6.080;2023-04-15T02:31:29;19.00;53.50
24144;DHT22;12307;50.828;6.080;2023-04-15T02:33:56;19.00;53.50
24144;DHT22;12307;50.828;6.080;2023-04-15T02:36:22;19.00;53.50
24144;DHT22;12307;50.828;6.080;2023-04-15T02:38:48;19.00;53.50
24144;DHT22;12307;50.828;6.080;2023-04-15T02:41:13;19.00;53.50
24144;DHT22;12307;50.828;6.080;2023-04-15T02:43:39;19.00;53.50
24144;DHT22;12307;50.828;6.080;2023-04-15T02:46:05;19.00;53.50
24144;DHT22;12307;50.828;6.080;2023-04-15T02:48:31;18.90;53.50
24144;DHT22;12307;50.828;6.080;2023-04-15T02:51:12;19.00;53.50
24144;DHT22;12307;50.828;6.080;2023-04-15T02:53:38;19.00;53.60
24144;DHT22;12307;50.828;6.080;2023-04-15T02:56:04;19.00;53.60
24144;DHT22;12307;50.828;6.080;2023-04-15T02:58:31;18.90;53.50
24144;DHT22;12307;50.828;6.080;2023-04-15T03:00:56;19.00;53.60
24144;DHT22;12307;50.828;6.080;2023-04-15T03:03:22;18.90;53.50
24144;DHT22;12307;50.828;6.080;2023-04-15T03:05:48;18.90;53.50
24144;DHT22;12307;50.828;6.080;2023-04-15T03:08:15;18.90;53.50
24144;DHT22;12307;50.828;6.080;2023-04-15T03:10:41;18.90;53.50
24144;DHT22;12307;50.828;6.080;2023-04-15T03:13:06;18.90;53.50
24144;DHT22;12307;50.828;6.080;2023-04-15T03:15:33;18.90;53.50
24144;DHT22;12307;50.828;6.080;2023-04-15T03:17:59;18.90;53.50
24144;DHT22;12307;50.828;6.080;2023-04-15T03:20:24;18.90;53.50
24144;DHT22;12307;50.828;6.080;2023-04-15T03:22:50;18.90;53.50
24144;DHT22;12307;50.828;6.080;2023-04-15T03:25:17;18.90;53.50
24144;DHT22;12307;50.828;6.080;2023-04-15T03:27:43;18.90;53.50
24144;DHT22;12307;50.828;6.080;2023-04-15T03:30:09;18.90;53.50
24144;DHT22;12307;50.828;6.080;2023-04-15T03:32:36;18.90;53.50
24144;DHT22;12307;50.828;6.080;2023-04-15T03:35:01;18.90;53.50
24144;DHT22;12307;50.828;6.080;2023-04-15T03:37:27;18.90;53.50
24144;DHT22;12307;50.828;6.080;2023-04-15T03:39:53;18.90;53.50
24144;DHT22;12307;50.828;6.080;2023-04-15T03:42:20;18.90;53.50
24144;DHT22;12307;50.828;6.080;2023-04-15T03:44:45;18.90;53.50
24144;DHT22;12307;50.828;6.080;2023-04-15T03:47:11;18.90;53.50
24144;DHT22;12307;50.828;6.080;2023-04-15T03:49:37;18.90;53.50
24144;DHT22;12307;50.828;6.080;2023-04-15T03:52:03;18.80;53.50
24144;DHT22;12307;50.828;6.080;2023-04-15T03:54:28;18.80;53.50
24144;DHT22;12307;50.828;6.080;2023-04-15T03:56:54;18.80;53.50
24144;DHT22;12307;50.828;6.080;2023-04-15T03:59:22;18.90;53.50
24144;DHT22;12307;50.828;6.080;2023-04-15T04:01:48;18.80;53.50
24144;DHT22;12307;50.828;6.080;2023-04-15T04:04:14;18.80;53.50
24144;DHT22;12307;50.828;6.080;2023-04-15T04:06:40;18.80;53.50
24144;DHT22;12307;50.828;6.080;2023-04-15T04:09:06;18.80;53.50
24144;DHT22;12307;50.828;6.080;2023-04-15T04:11:31;18.80;53.50
24144;DHT22;12307;50.828;6.080;2023-04-15T04:13:57;18.80;53.50
24144;DHT22;12307;50.828;6.080;2023-04-15T04:16:24;18.80;53.50
24144;DHT22;12307;50.828;6.080;2023-04-15T04:18:50;18.80;53.50
24144;DHT22;12307;50.828;6.080;2023-04-15T04:21:16;18.80;54.10
24144;DHT22;12307;50.828;6.080;2023-04-15T04:23:42;18.80;53.50
24144;DHT22;12307;50.828;6.080;2023-04-15T04:26:08;18.80;53.50
24144;DHT22;12307;50.828;6.080;2023-04-15T04:28:33;18.80;53.50
24144;DHT22;12307;50.828;6.080;2023-04-15T04:31:00;18.80;53.50
24144;DHT22;12307;50.828;6.080;2023-04-15T04:33:27;18.80;53.50
24144;DHT22;12307;50.828;6.080;2023-04-15T04:35:53;18.80;53.50
24144;DHT22;12307;50.828;6.080;2023-04-15T04:38:19;18.80;53.50
24144;DHT22;12307;50.828;6.080;2023-04-15T04:40:45;18.80;53.50
24144;DHT22;12307;50.828;6.080;2023-04-15T04:43:11;18.80;53.50
24144;DHT22;12307;50.828;6.080;2023-04-15T04:45:37;18.80;53.50
24144;DHT22;12307;50.828;6.080;2023-04-15T04:48:03;18.80;53.50
24144;DHT22;12307;50.828;6.080;2023-04-15T04:50:32;18.80;53.50
24144;DHT22;12307;50.828;6.080;2023-04-15T04:52:58;18.80;53.50
24144;DHT22;12307;50.828;6.080;2023-04-15T04:55:24;18.80;53.50
24144;DHT22;12307;50.828;6.080;2023-04-15T04:57:50;18.80;53.50
24144;DHT22;12307;50.828;6.080;2023-04-15T05:00:16;18.80;53.50
24144;DHT22;12307;50.828;6.080;2023-04-15T05:02:41;18.80;53.50
24144;DHT22;12307;50.828;6.080;2023-04-15T05:05:08;18.80;53.50
24144;DHT22;12307;50.828;6.080;2023-04-15T05:07:35;18.80;53.50
24144;DHT22;12307;50.828;6.080;2023-04-15T05:10:01;18.80;53.50
24144;DHT22;12307;50.828;6.080;2023-04-15T05:12:28;18.80;53.50
24144;DHT22;12307;50.828;6.080;2023-04-15T05:14:53;18.80;53.40
24144;DHT22;12307;50.828;6.080;2023-04-15T05:17:19;18.80;53.40
24144;DHT22;12307;50.828;6.080;2023-04-15T05:19:45;18.80;53.40
24144;DHT22;12307;50.828;6.080;2023-04-15T05:22:10;18.80;53.40
24144;DHT22;12307;50.828;6.080;2023-04-15T05:24:37;18.80;53.40
24144;DHT22;12307;50.828;6.080;2023-04-15T05:27:03;18.80;53.40
24144;DHT22;12307;50.828;6.080;2023-04-15T05:29:29;18.80;53.40
24144;DHT22;12307;50.828;6.080;2023-04-15T05:31:55;18.80;53.40
24144;DHT22;12307;50.828;6.080;2023-04-15T05:34:21;18.80;53.40
24144;DHT22;12307;50.828;6.080;2023-04-15T05:36:46;18.80;53.30
24144;DHT22;12307;50.828;6.080;2023-04-15T05:39:12;18.80;53.40
24144;DHT22;12307;50.828;6.080;2023-04-15T05:41:39;18.80;53.30
24144;DHT22;12307;50.828;6.080;2023-04-15T05:44:05;18.90;53.40
24144;DHT22;12307;50.828;6.080;2023-04-15T05:46:31;18.80;53.30
24144;DHT22;12307;50.828;6.080;2023-04-15T05:48:56;18.80;53.30
24144;DHT22;12307;50.828;6.080;2023-04-15T05:51:22;18.80;53.30
24144;DHT22;12307;50.828;6.080;2023-04-15T05:53:48;18.80;53.30
24144;DHT22;12307;50.828;6.080;2023-04-15T05:56:13;18.80;53.20
24144;DHT22;12307;50.828;6.080;2023-04-15T05:58:40;18.90;53.30
24144;DHT22;12307;50.828;6.080;2023-04-15T06:01:06;18.90;53.30
24144;DHT22;12307;50.828;6.080;2023-04-15T06:03:32;18.90;53.30
24144;DHT22;12307;50.828;6.080;2023-04-15T06:05:58;18.90;53.20
24144;DHT22;12307;50.828;6.080;2023-04-15T06:08:23;18.90;53.20
24144;DHT22;12307;50.828;6.080;2023-04-15T06:10:49;18.90;53.20
24144;DHT22;12307;50.828;6.080;2023-04-15T06:13:15;18.90;53.20
24144;DHT22;12307;50.828;6.080;2023-04-15T06:15:42;18.90;53.20
24144;DHT22;12307;50.828;6.080;2023-04-15T06:18:08;18.90;53.20
24144;DHT22;12307;50.828;6.080;2023-04-15T06:20:34;18.90;53.10
24144;DHT22;12307;50.828;6.080;2023-04-15T06:23:01;18.90;53.10
24144;DHT22;12307;50.828;6.080;2023-04-15T06:25:26;18.90;53.10
24144;DHT22;12307;50.828;6.080;2023-04-15T06:27:52;18.90;53.10
24144;DHT22;12307;50.828;6.080;2023-04-15T06:30:18;19.00;53.20
24144;DHT22;12307;50.828;6.080;2023-04-15T06:32:45;19.00;53.80
24144;DHT22;12307;50.828;6.080;2023-04-15T06:35:10;19.00;53.10
24144;DHT22;12307;50.828;6.080;2023-04-15T06:37:36;19.00;53.10
24144;DHT22;12307;50.828;6.080;2023-04-15T06:40:02;19.00;53.10
24144;DHT22;12307;50.828;6.080;2023-04-15T06:42:29;19.00;53.00
24144;DHT22;12307;50.828;6.080;2023-04-15T06:44:55;19.10;53.00
24144;DHT22;12307;50.828;6.080;2023-04-15T06:47:21;19.10;53.00
24144;DHT22;12307;50.828;6.080;2023-04-15T06:49:48;19.20;53.00
24144;DHT22;12307;50.828;6.080;2023-04-15T06:52:13;19.20;53.00
24144;DHT22;12307;50.828;6.080;2023-04-15T06:54:40;19.20;52.90
24144;DHT22;12307;50.828;6.080;2023-04-15T06:57:06;19.20;52.80
24144;DHT22;12307;50.828;6.080;2023-04-15T06:59:33;19.30;52.90
24144;DHT22;12307;50.828;6.080;2023-04-15T07:01:59;19.30;52.80
24144;DHT22;12307;50.828;6.080;2023-04-15T07:04:25;19.40;52.80
24144;DHT22;12307;50.828;6.080;2023-04-15T07:06:52;19.40;52.80
24144;DHT22;12307;50.828;6.080;2023-04-15T07:09:18;19.40;52.80
24144;DHT22;12307;50.828;6.080;2023-04-15T07:11:44;19.50;52.70
24144;DHT22;12307;50.828;6.080;2023-04-15T07:14:10;19.50;52.70
24144;DHT22;12307;50.828;6.080;2023-04-15T07:16:35;19.60;52.80
24144;DHT22;12307;50.828;6.080;2023-04-15T07:19:01;19.60;52.80
24144;DHT22;12307;50.828;6.080;2023-04-15T07:21:27;19.60;52.70
24144;DHT22;12307;50.828;6.080;2023-04-15T07:23:54;19.70;52.60
24144;DHT22;12307;50.828;6.080;2023-04-15T07:26:19;19.70;52.50
24144;DHT22;12307;50.828;6.080;2023-04-15T07:28:45;19.80;52.50
24144;DHT22;12307;50.828;6.080;2023-04-15T07:31:11;19.80;52.30
24144;DHT22;12307;50.828;6.080;2023-04-15T07:33:37;19.90;52.20
24144;DHT22;12307;50.828;6.080;2023-04-15T07:36:03;20.10;52.10
24144;DHT22;12307;50.828;6.080;2023-04-15T07:38:29;20.10;52.00
24144;DHT22;12307;50.828;6.080;2023-04-15T07:40:56;20.20;51.90
24144;DHT22;12307;50.828;6.080;2023-04-15T07:43:22;20.30;51.70
24144;DHT22;12307;50.828;6.080;2023-04-15T07:45:48;20.40;51.60
24144;DHT22;12307;50.828;6.080;2023-04-15T07:48:13;20.50;51.50
24144;DHT22;12307;50.828;6.080;2023-04-15T07:50:39;20.50;51.40
24144;DHT22;12307;50.828;6.080;2023-04-15T07:53:06;20.60;51.40
24144;DHT22;12307;50.828;6.080;2023-04-15T07:55:31;20.70;51.30
24144;DHT22;12307;50.828;6.080;2023-04-15T07:57:58;20.70;51.20
24144;DHT22;12307;50.828;6.080;2023-04-15T08:00:24;20.70;51.10
24144;DHT22;12307;50.828;6.080;2023-04-15T08:02:51;20.80;51.00
24144;DHT22;12307;50.828;6.080;2023-04-15T08:05:18;21.00;50.90
24144;DHT22;12307;50.828;6.080;2023-04-15T08:07:44;21.10;50.70
24144;DHT22;12307;50.828;6.080;2023-04-15T08:10:10;21.40;50.50
24144;DHT22;12307;50.828;6.080;2023-04-15T08:12:36;21.70;50.20
24144;DHT22;12307;50.828;6.080;2023-04-15T08:15:04;22.10;49.90
24144;DHT22;12307;50.828;6.080;2023-04-15T08:17:30;22.40;49.60
24144;DHT22;12307;50.828;6.080;2023-04-15T08:19:55;22.70;49.30
24144;DHT22;12307;50.828;6.080;2023-04-15T08:22:21;23.00;49.00
24144;DHT22;12307;50.828;6.080;2023-04-15T08:24:47;23.20;48.70
24144;DHT22;12307;50.828;6.080;2023-04-15T08:27:13;23.50;48.50
24144;DHT22;12307;50.828;6.080;2023-04-15T08:29:39;23.70;48.20
24144;DHT22;12307;50.828;6.080;2023-04-15T08:32:06;23.90;47.90
24144;DHT22;12307;50.828;6.080;2023-04-15T08:34:32;24.00;47.70
24144;DHT22;12307;50.828;6.080;2023-04-15T08:36:58;24.10;47.50
24144;DHT22;12307;50.828;6.080;2023-04-15T08:39:23;24.20;47.30
24144;DHT22;12307;50.828;6.080;2023-04-15T08:41:54;24.30;47.20
24144;DHT22;12307;50.828;6.080;2023-04-15T08:44:22;24.30;46.90
24144;DHT22;12307;50.828;6.080;2023-04-15T08:46:48;24.50;46.70
24144;DHT22;12307;50.828;6.080;2023-04-15T08:49:16;24.70;46.50
24144;DHT22;12307;50.828;6.080;2023-04-15T08:51:43;24.90;46.20
24144;DHT22;12307;50.828;6.080;2023-04-15T08:54:10;25.10;46.00
24144;DHT22;12307;50.828;6.080;2023-04-15T08:56:37;25.30;45.80
24144;DHT22;12307;50.828;6.080;2023-04-15T08:59:03;25.40;46.30
24144;DHT22;12307;50.828;6.080;2023-04-15T09:01:31;25.60;45.50
24144;DHT22;12307;50.828;6.080;2023-04-15T09:03:58;25.80;45.30
24144;DHT22;12307;50.828;6.080;2023-04-15T09:06:25;26.20;45.10
24144;DHT22;12307;50.828;6.080;2023-04-15T09:08:51;26.40;44.70
24144;DHT22;12307;50.828;6.080;2023-04-15T09:11:17;26.50;44.50
24144;DHT22;12307;50.828;6.080;2023-04-15T09:13:44;26.50;44.40
24144;DHT22;12307;50.828;6.080;2023-04-15T09:16:09;26.60;44.30
24144;DHT22;12307;50.828;6.080;2023-04-15T09:18:37;26.80;44.20
24144;DHT22;12307;50.828;6.080;2023-04-15T09:21:06;26.90;43.90
24144;DHT22;12307;50.828;6.080;2023-04-15T09:23:35;27.00;43.80
24144;DHT22;12307;50.828;6.080;2023-04-15T09:26:01;26.90;43.80
24144;DHT22;12307;50.828;6.080;2023-04-15T09:28:28;26.90;43.70
24144;DHT22;12307;50.828;6.080;2023-04-15T09:30:57;27.00;43.60
24144;DHT22;12307;50.828;6.080;2023-04-15T09:33:23;27.30;43.30
24144;DHT22;12307;50.828;6.080;2023-04-15T09:35:59;27.60;42.90
24144;DHT22;12307;50.828;6.080;2023-04-15T09:38:25;27.90;42.50
24144;DHT22;12307;50.828;6.080;2023-04-15T09:40:52;28.20;42.30
24144;DHT22;12307;50.828;6.080;2023-04-15T09:43:18;28.40;41.90
24144;DHT22;12307;50.828;6.080;2023-04-15T09:45:47;28.50;41.70
24144;DHT22;12307;50.828;6.080;2023-04-15T09:48:17;28.60;41.60
24144;DHT22;12307;50.828;6.080;2023-04-15T09:50:45;28.60;41.60
24144;DHT22;12307;50.828;6.080;2023-04-15T09:53:15;28.60;41.50
24144;DHT22;12307;50.828;6.080;2023-04-15T09:55:43;28.60;41.50
24144;DHT22;12307;50.828;6.080;2023-04-15T09:58:17;28.70;41.30
24144;DHT22;12307;50.828;6.080;2023-04-15T10:00:43;28.80;41.10
24144;DHT22;12307;50.828;6.080;2023-04-15T10:03:08;29.00;40.90
24144;DHT22;12307;50.828;6.080;2023-04-15T10:05:36;29.20;40.50
24144;DHT22;12307;50.828;6.080;2023-04-15T10:08:02;29.50;40.30
24144;DHT22;12307;50.828;6.080;2023-04-15T10:10:28;29.70;40.00
24144;DHT22;12307;50.828;6.080;2023-04-15T10:12:55;29.90;39.60
24144;DHT22;12307;50.828;6.080;2023-04-15T10:15:23;30.10;39.40
24144;DHT22;12307;50.828;6.080;2023-04-15T10:17:50;30.30;39.10
24144;DHT22;12307;50.828;6.080;2023-04-15T10:20:18;30.50;38.90
24144;DHT22;12307;50.828;6.080;2023-04-15T10:22:45;30.50;38.70
24144;DHT22;12307;50.828;6.080;2023-04-15T10:25:11;30.60;38.60
24144;DHT22;12307;50.828;6.080;2023-04-15T10:27:40;30.60;39.10
24144;DHT22;12307;50.828;6.080;2023-04-15T10:30:08;30.60;38.40
24144;DHT22;12307;50.828;6.080;2023-04-15T10:32:35;30.50;38.40
24144;DHT22;12307;50.828;6.080;2023-04-15T10:35:01;30.40;38.30
24144;DHT22;12307;50.828;6.080;2023-04-15T10:37:33;30.20;38.30
24144;DHT22;12307;50.828;6.080;2023-04-15T10:39:59;30.00;38.40
24144;DHT22;12307;50.828;6.080;2023-04-15T10:42:33;29.80;38.50
24144;DHT22;12307;50.828;6.080;2023-04-15T10:44:59;29.50;38.60
24144;DHT22;12307;50.828;6.080;2023-04-15T10:47:26;29.10;38.80
24144;DHT22;12307;50.828;6.080;2023-04-15T10:49:57;28.70;39.20
24144;DHT22;12307;50.828;6.080;2023-04-15T10:52:25;28.30;39.50
24144;DHT22;12307;50.828;6.080;2023-04-15T10:55:01;28.00;39.80
24144;DHT22;12307;50.828;6.080;2023-04-15T10:57:34;27.60;40.00
24144;DHT22;12307;50.828;6.080;2023-04-15T11:00:11;27.40;40.30
24144;DHT22;12307;50.828;6.080;2023-04-15T11:02:44;27.00;40.60
24144;DHT22;12307;50.828;6.080;2023-04-15T11:05:13;26.70;41.00
24144;DHT22;12307;50.828;6.080;2023-04-15T11:07:46;26.30;41.40
24144;DHT22;12307;50.828;6.080;2023-04-15T11:13:16;25.70;42.20
24144;DHT22;12307;50.828;6.080;2023-04-15T11:15:43;25.50;42.30
24144;DHT22;12307;50.828;6.080;2023-04-15T11:18:11;25.40;42.60
24144;DHT22;12307;50.828;6.080;2023-04-15T11:20:40;25.20;42.80
24144;DHT22;12307;50.828;6.080;2023-04-15T11:23:08;25.00;43.00
24144;DHT22;12307;50.828;6.080;2023-04-15T11:25:35;24.90;43.20
24144;DHT22;12307;50.828;6.080;2023-04-15T11:28:03;24.80;43.40
24144;DHT22;12307;50.828;6.080;2023-04-15T11:30:30;24.70;43.60
24144;DHT22;12307;50.828;6.080;2023-04-15T11:32:57;24.60;43.80
24144;DHT22;12307;50.828;6.080;2023-04-15T11:35:23;24.50;44.60
24144;DHT22;12307;50.828;6.080;2023-04-15T11:37:51;24.30;44.10
24144;DHT22;12307;50.828;6.080;2023-04-15T11:40:22;24.30;44.30
24144;DHT22;12307;50.828;6.080;2023-04-15T11:43:03;24.10;44.40
24144;DHT22;12307;50.828;6.080;2023-04-15T11:45:29;24.00;44.70
24144;DHT22;12307;50.828;6.080;2023-04-15T11:48:04;24.00;44.80
24144;DHT22;12307;50.828;6.080;2023-04-15T11:50:30;23.90;44.90
24144;DHT22;12307;50.828;6.080;2023-04-15T11:52:59;23.90;45.00
24144;DHT22;12307;50.828;6.080;2023-04-15T11:55:26;23.80;45.10
24144;DHT22;12307;50.828;6.080;2023-04-15T11:58:06;23.70;45.30
24144;DHT22;12307;50.828;6.080;2023-04-15T12:00:32;23.50;45.50
24144;DHT22;12307;50.828;6.080;2023-04-15T12:03:11;23.50;45.60
24144;DHT22;12307;50.828;6.080;2023-04-15T12:05:36;23.30;45.80
24144;DHT22;12307;50.828;6.080;2023-04-15T12:08:23;23.30;45.90
24144;DHT22;12307;50.828;6.080;2023-04-15T12:10:49;23.20;46.00
24144;DHT22;12307;50.828;6.080;2023-04-15T12:13:15;23.20;46.10
24144;DHT22;12307;50.828;6.080;2023-04-15T12:15:40;23.10;46.10
24144;DHT22;12307;50.828;6.080;2023-04-15T12:18:06;23.10;46.20
24144;DHT22;12307;50.828;6.080;2023-04-15T12:20:43;23.10;46.30
24144;DHT22;12307;50.828;6.080;2023-04-15T12:23:09;23.10;46.40
24144;DHT22;12307;50.828;6.080;2023-04-15T12:25:36;23.10;46.50
24144;DHT22;12307;50.828;6.080;2023-04-15T12:28:09;23.00;46.50
24144;DHT22;12307;50.828;6.080;2023-04-15T12:30:35;23.00;46.60
24144;DHT22;12307;50.828;6.080;2023-04-15T12:33:02;22.90;46.60
24144;DHT22;12307;50.828;6.080;2023-04-15T12:35:27;22.90;46.70
24144;DHT22;12307;50.828;6.080;2023-04-15T12:37:53;22.90;46.70
24144;DHT22;12307;50.828;6.080;2023-04-15T12:40:19;22.90;46.80
24144;DHT22;12307;50.828;6.080;2023-04-15T12:42:46;22.90;46.80
24144;DHT22;12307;50.828;6.080;2023-04-15T12:45:12;22.80;46.90
24144;DHT22;12307;50.828;6.080;2023-04-15T12:47:37;22.80;47.00
24144;DHT22;12307;50.828;6.080;2023-04-15T12:50:04;22.70;47.10
24144;DHT22;12307;50.828;6.080;2023-04-15T12:52:30;22.60;47.20
24144;DHT22;12307;50.828;6.080;2023-04-15T12:54:55;22.60;47.30
24144;DHT22;12307;50.828;6.080;2023-04-15T12:57:21;22.50;47.40
24144;DHT22;12307;50.828;6.080;2023-04-15T12:59:48;22.50;47.40
24144;DHT22;12307;50.828;6.080;2023-04-15T13:02:14;22.50;47.50
24144;DHT22;12307;50.828;6.080;2023-04-15T13:04:40;22.50;47.40
24144;DHT22;12307;50.828;6.080;2023-04-15T13:07:05;22.60;47.50
24144;DHT22;12307;50.828;6.080;2023-04-15T13:09:31;22.50;47.40
24144;DHT22;12307;50.828;6.080;2023-04-15T13:11:57;22.50;47.50
24144;DHT22;12307;50.828;6.080;2023-04-15T13:14:23;22.50;47.60
24144;DHT22;12307;50.828;6.080;2023-04-15T13:16:50;22.50;47.60
24144;DHT22;12307;50.828;6.080;2023-04-15T13:19:16;22.50;47.70
24144;DHT22;12307;50.828;6.080;2023-04-15T13:21:42;22.50;47.70
24144;DHT22;12307;50.828;6.080;2023-04-15T13:24:07;22.50;47.70
24144;DHT22;12307;50.828;6.080;2023-04-15T13:26:34;22.40;47.70
24144;DHT22;12307;50.828;6.080;2023-04-15T13:28:59;22.40;47.80
24144;DHT22;12307;50.828;6.080;2023-04-15T13:31:25;22.40;47.70
24144;DHT22;12307;50.828;6.080;2023-04-15T13:33:53;22.40;47.70
24144;DHT22;12307;50.828;6.080;2023-04-15T13:36:18;22.40;47.60
24144;DHT22;12307;50.828;6.080;2023-04-15T13:38:44;22.40;47.70
24144;DHT22;12307;50.828;6.080;2023-04-15T13:41:10;22.40;47.70
24144;DHT22;12307;50.828;6.080;2023-04-15T13:43:35;22.30;47.80
24144;DHT22;12307;50.828;6.080;2023-04-15T13:46:02;22.30;47.90
24144;DHT22;12307;50.828;6.080;2023-04-15T13:48:27;22.30;47.80
24144;DHT22;12307;50.828;6.080;2023-04-15T13:50:55;22.30;47.90
24144;DHT22;12307;50.828;6.080;2023-04-15T13:53:20;22.30;47.90
24144;DHT22;12307;50.828;6.080;2023-04-15T13:55:46;22.20;47.90
24144;DHT22;12307;50.828;6.080;2023-04-15T13:58:12;22.20;48.00
24144;DHT22;12307;50.828;6.080;2023-04-15T14:00:37;22.10;48.00
24144;DHT22;12307;50.828;6.080;2023-04-15T14:03:03;22.10;48.10
24144;DHT22;12307;50.828;6.080;2023-04-15T14:05:29;22.00;48.10
24144;DHT22;12307;50.828;6.080;2023-04-15T14:07:56;22.00;48.20
24144;DHT22;12307;50.828;6.080;2023-04-15T14:10:23;21.90;48.20
24144;DHT22;12307;50.828;6.080;2023-04-15T14:12:49;21.90;48.30
24144;DHT22;12307;50.828;6.080;2023-04-15T14:15:15;21.90;48.30
24144;DHT22;12307;50.828;6.080;2023-04-15T14:17:40;21.80;48.20
24144;DHT22;12307;50.828;6.080;2023-04-15T14:20:07;21.80;48.30
24144;DHT22;12307;50.828;6.080;2023-04-15T14:22:33;21.80;48.40
24144;DHT22;12307;50.828;6.080;2023-04-15T14:25:00;21.70;48.40
24144;DHT22;12307;50.828;6.080;2023-04-15T14:27:26;21.70;48.50
24144;DHT22;12307;50.828;6.080;2023-04-15T14:29:52;21.60;48.60
24144;DHT22;12307;50.828;6.080;2023-04-15T14:32:18;21.60;48.60
24144;DHT22;12307;50.828;6.080;2023-04-15T14:34:44;21.60;48.60
24144;DHT22;12307;50.828;6.080;2023-04-15T14:37:10;21.60;48.60
24144;DHT22;12307;50.828;6.080;2023-04-15T14:39:35;21.60;48.60
24144;DHT22;12307;50.828;6.080;2023-04-15T14:42:02;21.60;48.60
24144;DHT22;12307;50.828;6.080;2023-04-15T14:44:28;21.60;48.60
24144;DHT22;12307;50.828;6.080;2023-04-15T14:46:54;21.60;48.60
24144;DHT22;12307;50.828;6.080;2023-04-15T14:49:20;21.60;48.60
24144;DHT22;12307;50.828;6.080;2023-04-15T14:51:46;21.60;48.60
24144;DHT22;12307;50.828;6.080;2023-04-15T14:54:11;21.60;48.70
24144;DHT22;12307;50.828;6.080;2023-04-15T14:56:37;21.60;48.70
24144;DHT22;12307;50.828;6.080;2023-04-15T14:59:04;21.60;48.80
24144;DHT22;12307;50.828;6.080;2023-04-15T15:01:30;21.50;48.80
24144;DHT22;12307;50.828;6.080;2023-04-15T15:03:56;21.50;48.80
24144;DHT22;12307;50.828;6.080;2023-04-15T15:06:22;21.50;48.90
24144;DHT22;12307;50.828;6.080;2023-04-15T15:08:47;21.50;49.00
24144;DHT22;12307;50.828;6.080;2023-04-15T15:11:15;21.50;49.00
24144;DHT22;12307;50.828;6.080;2023-04-15T15:13:41;21.40;49.00
24144;DHT22;12307;50.828;6.080;2023-04-15T15:16:08;21.40;49.00
24144;DHT22;12307;50.828;6.080;2023-04-15T15:18:34;21.40;49.10
24144;DHT22;12307;50.828;6.080;2023-04-15T15:21:00;21.30;49.10
24144;DHT22;12307;50.828;6.080;2023-04-15T15:23:26;21.30;49.20
24144;DHT22;12307;50.828;6.080;2023-04-15T15:25:52;21.30;49.30
24144;DHT22;12307;50.828;6.080;2023-04-15T15:28:17;21.30;49.30